Macclesfield, United Kingdom
Current Conditions -  °F | °C
As of 12:20 PM on Thursday 30 Oct 2014 (Local Time) from EGCC Reporting Station
Broken Clouds Broken Clouds  
Wind Chill: 63°   Ceiling: 3800
Heat Index: 63°   Visibility: 6mi
Dew Point: 57°   Wind: 9mph
Humidity: 82%   Direction: 190°S
Pressure: 29.97"   Gusts: NA
Location:  53.26°N, 2.13°W
Report Text: EGCC 301220Z 19008KT 9999 FEW019 SCT025 BKN038 17/14 Q1015 NOSIG
Loading
Personal Weather Stations






























Interactive Weather Map New forecast layout! Learn more

10-Day Weather Forecast

Advertisements
Track Severe Weather on mobile